Terminal Aerodrome Forecast
Issued by NWS

Home | Current Version | Previous Version | Text Only | Print | Product List | Glossary On
Versions: 1 2 3 4 5 6 7 8 9 10 11 12 13 14 15 16 17 18 19 20
000
FTUS46 KSEW 230500
TAFHQM
TAF
KHQM 230538Z 2306/2406 21010KT P6SM SCT070
     FM231100 18008KT P6SM -SHRA BKN025 OVC050
     FM232200 21012KT P6SM -SHRA SCT035 BKN045 BKN070=

USA.gov is the U.S. government's official web portal to all federal, state and local government web resources and services.